sensor_id;sensor_type;location;lat;lon;timestamp;pressure;altitude;pressure_sealevel;temperature;humidity
12349;BME280;5974;42.710;27.258;2023-02-11T00:00:12;102133.44;;;-7.90;100.00
12349;BME280;5974;42.710;27.258;2023-02-11T00:02:39;102127.91;;;-8.23;100.00
12349;BME280;5974;42.710;27.258;2023-02-11T00:05:07;102142.59;;;-8.43;100.00
12349;BME280;5974;42.710;27.258;2023-02-11T00:07:35;102135.56;;;-8.09;100.00
12349;BME280;5974;42.710;27.258;2023-02-11T00:10:02;102141.44;;;-8.35;100.00
12349;BME280;5974;42.710;27.258;2023-02-11T00:12:30;102136.47;;;-8.83;100.00
12349;BME280;5974;42.710;27.258;2023-02-11T00:14:59;102131.91;;;-8.75;100.00
12349;BME280;5974;42.710;27.258;2023-02-11T00:17:25;102131.41;;;-8.58;100.00
12349;BME280;5974;42.710;27.258;2023-02-11T00:19:52;102134.81;;;-7.95;100.00
12349;BME280;5974;42.710;27.258;2023-02-11T00:22:19;102134.13;;;-7.93;100.00
12349;BME280;5974;42.710;27.258;2023-02-11T00:24:46;102126.81;;;-7.88;100.00
12349;BME280;5974;42.710;27.258;2023-02-11T00:27:13;102135.13;;;-7.91;100.00
12349;BME280;5974;42.710;27.258;2023-02-11T00:29:40;102123.69;;;-7.84;100.00
12349;BME280;5974;42.710;27.258;2023-02-11T00:32:09;102134.06;;;-7.68;100.00
12349;BME280;5974;42.710;27.258;2023-02-11T00:34:36;102128.41;;;-7.51;100.00
12349;BME280;5974;42.710;27.258;2023-02-11T00:37:04;102121.19;;;-7.45;100.00
12349;BME280;5974;42.710;27.258;2023-02-11T00:39:30;102125.38;;;-7.32;100.00
12349;BME280;5974;42.710;27.258;2023-02-11T00:41:57;102124.69;;;-7.43;100.00
12349;BME280;5974;42.710;27.258;2023-02-11T00:44:24;102121.66;;;-7.37;100.00
12349;BME280;5974;42.710;27.258;2023-02-11T00:46:51;102118.72;;;-7.30;100.00
12349;BME280;5974;42.710;27.258;2023-02-11T00:49:19;102115.31;;;-7.31;100.00
12349;BME280;5974;42.710;27.258;2023-02-11T00:51:47;102118.22;;;-7.38;100.00
12349;BME280;5974;42.710;27.258;2023-02-11T00:54:14;102115.22;;;-7.45;100.00
12349;BME280;5974;42.710;27.258;2023-02-11T00:56:41;102113.06;;;-7.26;100.00
12349;BME280;5974;42.710;27.258;2023-02-11T00:59:07;102111.13;;;-7.43;100.00
12349;BME280;5974;42.710;27.258;2023-02-11T01:01:34;102108.94;;;-7.50;100.00
12349;BME280;5974;42.710;27.258;2023-02-11T01:04:01;102105.84;;;-7.59;100.00
12349;BME280;5974;42.710;27.258;2023-02-11T01:06:29;102109.94;;;-7.61;100.00
12349;BME280;5974;42.710;27.258;2023-02-11T01:08:56;102112.38;;;-7.76;100.00
12349;BME280;5974;42.710;27.258;2023-02-11T01:11:23;102115.97;;;-7.86;100.00
12349;BME280;5974;42.710;27.258;2023-02-11T01:13:50;102109.38;;;-8.21;100.00
12349;BME280;5974;42.710;27.258;2023-02-11T01:16:18;102107.06;;;-8.05;100.00
12349;BME280;5974;42.710;27.258;2023-02-11T01:18:45;102110.00;;;-7.99;100.00
12349;BME280;5974;42.710;27.258;2023-02-11T01:21:12;102112.53;;;-7.99;100.00
12349;BME280;5974;42.710;27.258;2023-02-11T01:23:40;102100.44;;;-8.03;100.00
12349;BME280;5974;42.710;27.258;2023-02-11T01:26:07;102097.56;;;-8.34;100.00
12349;BME280;5974;42.710;27.258;2023-02-11T01:28:34;102104.78;;;-9.13;100.00
12349;BME280;5974;42.710;27.258;2023-02-11T01:31:02;102098.91;;;-8.64;100.00
12349;BME280;5974;42.710;27.258;2023-02-11T01:33:29;102098.91;;;-8.39;100.00
12349;BME280;5974;42.710;27.258;2023-02-11T01:35:59;102090.25;;;-8.30;100.00
12349;BME280;5974;42.710;27.258;2023-02-11T01:38:27;102093.94;;;-8.38;100.00
12349;BME280;5974;42.710;27.258;2023-02-11T01:40:57;102099.25;;;-8.21;100.00
12349;BME280;5974;42.710;27.258;2023-02-11T01:43:27;102100.00;;;-8.23;100.00
12349;BME280;5974;42.710;27.258;2023-02-11T01:46:00;102087.41;;;-8.21;100.00
12349;BME280;5974;42.710;27.258;2023-02-11T01:48:31;102086.75;;;-8.32;100.00
12349;BME280;5974;42.710;27.258;2023-02-11T01:51:05;102088.00;;;-8.38;100.00
12349;BME280;5974;42.710;27.258;2023-02-11T01:53:33;102081.75;;;-8.43;100.00
12349;BME280;5974;42.710;27.258;2023-02-11T01:56:21;102075.59;;;-8.47;100.00
12349;BME280;5974;42.710;27.258;2023-02-11T01:59:11;102086.66;;;-8.58;100.00
12349;BME280;5974;42.710;27.258;2023-02-11T02:01:45;102088.19;;;-8.85;100.00
12349;BME280;5974;42.710;27.258;2023-02-11T02:04:18;102073.13;;;-8.95;100.00
12349;BME280;5974;42.710;27.258;2023-02-11T02:06:48;102077.59;;;-8.54;100.00
12349;BME280;5974;42.710;27.258;2023-02-11T02:09:20;102081.56;;;-8.58;100.00
12349;BME280;5974;42.710;27.258;2023-02-11T02:11:50;102073.13;;;-8.83;100.00
12349;BME280;5974;42.710;27.258;2023-02-11T02:14:18;102087.91;;;-8.89;100.00
12349;BME280;5974;42.710;27.258;2023-02-11T02:16:45;102087.28;;;-8.98;100.00
12349;BME280;5974;42.710;27.258;2023-02-11T02:19:37;102090.06;;;-8.82;100.00
12349;BME280;5974;42.710;27.258;2023-02-11T02:25:21;102085.69;;;-9.44;100.00
12349;BME280;5974;42.710;27.258;2023-02-11T02:28:06;102084.03;;;-9.20;100.00
12349;BME280;5974;42.710;27.258;2023-02-11T02:33:44;102082.75;;;-10.65;100.00
12349;BME280;5974;42.710;27.258;2023-02-11T02:36:21;102086.03;;;-10.09;100.00
12349;BME280;5974;42.710;27.258;2023-02-11T02:38:53;102088.22;;;-9.32;100.00
12349;BME280;5974;42.710;27.258;2023-02-11T02:41:24;102086.84;;;-9.04;100.00
12349;BME280;5974;42.710;27.258;2023-02-11T02:43:53;102080.31;;;-9.01;100.00
12349;BME280;5974;42.710;27.258;2023-02-11T02:46:22;102084.53;;;-9.01;100.00
12349;BME280;5974;42.710;27.258;2023-02-11T02:48:52;102087.22;;;-8.87;100.00
12349;BME280;5974;42.710;27.258;2023-02-11T02:51:33;102090.31;;;-8.91;100.00
12349;BME280;5974;42.710;27.258;2023-02-11T02:57:05;102091.84;;;-9.41;100.00
12349;BME280;5974;42.710;27.258;2023-02-11T02:59:46;102093.69;;;-9.15;100.00
12349;BME280;5974;42.710;27.258;2023-02-11T03:02:25;102090.66;;;-8.86;100.00
12349;BME280;5974;42.710;27.258;2023-02-11T03:04:56;102084.00;;;-8.84;100.00
12349;BME280;5974;42.710;27.258;2023-02-11T03:07:35;102074.53;;;-9.11;100.00
12349;BME280;5974;42.710;27.258;2023-02-11T03:10:07;102087.75;;;-9.15;100.00
12349;BME280;5974;42.710;27.258;2023-02-11T03:12:36;102084.06;;;-8.96;100.00
12349;BME280;5974;42.710;27.258;2023-02-11T03:15:05;102085.66;;;-8.85;100.00
12349;BME280;5974;42.710;27.258;2023-02-11T03:17:33;102091.22;;;-8.65;100.00
12349;BME280;5974;42.710;27.258;2023-02-11T03:20:05;102089.31;;;-8.56;100.00
12349;BME280;5974;42.710;27.258;2023-02-11T03:22:38;102090.66;;;-8.61;100.00
12349;BME280;5974;42.710;27.258;2023-02-11T03:25:07;102089.91;;;-8.72;100.00
12349;BME280;5974;42.710;27.258;2023-02-11T03:27:38;102084.09;;;-8.83;100.00
12349;BME280;5974;42.710;27.258;2023-02-11T03:30:10;102084.75;;;-8.98;100.00
12349;BME280;5974;42.710;27.258;2023-02-11T03:32:40;102086.25;;;-9.00;100.00
12349;BME280;5974;42.710;27.258;2023-02-11T03:35:15;102071.41;;;-9.55;100.00
12349;BME280;5974;42.710;27.258;2023-02-11T03:37:49;102078.97;;;-9.44;100.00
12349;BME280;5974;42.710;27.258;2023-02-11T03:40:19;102074.78;;;-9.20;100.00
12349;BME280;5974;42.710;27.258;2023-02-11T03:42:49;102076.25;;;-9.10;100.00
12349;BME280;5974;42.710;27.258;2023-02-11T03:45:21;102061.16;;;-9.33;100.00
12349;BME280;5974;42.710;27.258;2023-02-11T03:47:52;102076.56;;;-8.94;100.00
12349;BME280;5974;42.710;27.258;2023-02-11T03:50:23;102071.41;;;-8.96;100.00
12349;BME280;5974;42.710;27.258;2023-02-11T03:52:53;102071.13;;;-8.87;100.00
12349;BME280;5974;42.710;27.258;2023-02-11T03:55:22;102080.25;;;-9.25;100.00
12349;BME280;5974;42.710;27.258;2023-02-11T03:57:50;102084.47;;;-9.38;100.00
12349;BME280;5974;42.710;27.258;2023-02-11T04:00:17;102085.31;;;-10.41;100.00
12349;BME280;5974;42.710;27.258;2023-02-11T04:02:44;102081.63;;;-10.35;100.00
12349;BME280;5974;42.710;27.258;2023-02-11T04:05:13;102079.25;;;-9.75;100.00
12349;BME280;5974;42.710;27.258;2023-02-11T04:07:42;102071.88;;;-9.72;100.00
12349;BME280;5974;42.710;27.258;2023-02-11T04:10:10;102076.56;;;-9.42;100.00
12349;BME280;5974;42.710;27.258;2023-02-11T04:12:37;102070.53;;;-9.67;100.00
12349;BME280;5974;42.710;27.258;2023-02-11T04:15:04;102066.78;;;-9.61;100.00
12349;BME280;5974;42.710;27.258;2023-02-11T04:17:31;102077.13;;;-9.81;100.00
12349;BME280;5974;42.710;27.258;2023-02-11T04:19:58;102075.66;;;-10.35;100.00
12349;BME280;5974;42.710;27.258;2023-02-11T04:22:25;102078.22;;;-9.89;100.00
12349;BME280;5974;42.710;27.258;2023-02-11T04:24:53;102078.31;;;-9.99;100.00
12349;BME280;5974;42.710;27.258;2023-02-11T04:27:20;102075.91;;;-10.32;100.00
12349;BME280;5974;42.710;27.258;2023-02-11T04:29:47;102071.28;;;-9.68;100.00
12349;BME280;5974;42.710;27.258;2023-02-11T04:32:14;102052.81;;;-9.56;100.00
12349;BME280;5974;42.710;27.258;2023-02-11T04:34:41;102070.84;;;-9.40;100.00
12349;BME280;5974;42.710;27.258;2023-02-11T04:37:07;102064.88;;;-9.40;100.00
12349;BME280;5974;42.710;27.258;2023-02-11T04:39:35;102070.13;;;-9.25;100.00
12349;BME280;5974;42.710;27.258;2023-02-11T04:42:03;102055.97;;;-9.47;100.00
12349;BME280;5974;42.710;27.258;2023-02-11T04:44:30;102057.38;;;-9.27;100.00
12349;BME280;5974;42.710;27.258;2023-02-11T04:46:57;102057.06;;;-9.31;100.00
12349;BME280;5974;42.710;27.258;2023-02-11T04:49:24;102064.00;;;-9.41;100.00
12349;BME280;5974;42.710;27.258;2023-02-11T04:51:51;102060.94;;;-9.37;100.00
12349;BME280;5974;42.710;27.258;2023-02-11T04:54:18;102059.28;;;-9.36;100.00
12349;BME280;5974;42.710;27.258;2023-02-11T04:56:46;102052.91;;;-9.43;100.00
12349;BME280;5974;42.710;27.258;2023-02-11T04:59:15;102059.28;;;-9.36;100.00
12349;BME280;5974;42.710;27.258;2023-02-11T05:01:42;102048.81;;;-10.57;100.00
12349;BME280;5974;42.710;27.258;2023-02-11T05:04:09;102045.34;;;-9.89;100.00
12349;BME280;5974;42.710;27.258;2023-02-11T05:06:37;102045.31;;;-10.59;100.00
12349;BME280;5974;42.710;27.258;2023-02-11T05:09:04;102044.59;;;-9.88;100.00
12349;BME280;5974;42.710;27.258;2023-02-11T05:11:31;102039.97;;;-9.82;100.00
12349;BME280;5974;42.710;27.258;2023-02-11T05:13:58;102049.09;;;-9.61;100.00
12349;BME280;5974;42.710;27.258;2023-02-11T05:16:26;102041.38;;;-9.51;100.00
12349;BME280;5974;42.710;27.258;2023-02-11T05:18:53;102038.06;;;-9.61;100.00
12349;BME280;5974;42.710;27.258;2023-02-11T05:21:21;102039.78;;;-9.37;100.00
12349;BME280;5974;42.710;27.258;2023-02-11T05:23:48;102052.50;;;-9.12;100.00
12349;BME280;5974;42.710;27.258;2023-02-11T05:26:15;102047.28;;;-9.50;100.00
12349;BME280;5974;42.710;27.258;2023-02-11T05:28:42;102051.44;;;-9.27;100.00
12349;BME280;5974;42.710;27.258;2023-02-11T05:31:10;102054.66;;;-9.30;100.00
12349;BME280;5974;42.710;27.258;2023-02-11T05:33:40;102044.38;;;-9.20;100.00
12349;BME280;5974;42.710;27.258;2023-02-11T05:36:09;102046.88;;;-9.68;100.00
12349;BME280;5974;42.710;27.258;2023-02-11T05:38:36;102046.81;;;-9.21;100.00
12349;BME280;5974;42.710;27.258;2023-02-11T05:41:04;102046.59;;;-9.24;100.00
12349;BME280;5974;42.710;27.258;2023-02-11T05:43:31;102052.56;;;-9.36;100.00
12349;BME280;5974;42.710;27.258;2023-02-11T05:46:01;102050.03;;;-8.99;100.00
12349;BME280;5974;42.710;27.258;2023-02-11T05:48:27;102053.00;;;-8.68;100.00
12349;BME280;5974;42.710;27.258;2023-02-11T05:50:56;102032.84;;;-8.54;100.00
12349;BME280;5974;42.710;27.258;2023-02-11T05:53:23;102046.69;;;-8.49;100.00
12349;BME280;5974;42.710;27.258;2023-02-11T05:55:49;102044.78;;;-8.27;100.00
12349;BME280;5974;42.710;27.258;2023-02-11T05:58:16;102044.09;;;-5.60;100.00
12349;BME280;5974;42.710;27.258;2023-02-11T06:00:43;102042.47;;;-2.09;100.00
12349;BME280;5974;42.710;27.258;2023-02-11T06:03:10;102036.56;;;0.78;100.00
12349;BME280;5974;42.710;27.258;2023-02-11T06:05:37;102038.94;;;1.30;82.53
12349;BME280;5974;42.710;27.258;2023-02-11T06:08:05;102035.97;;;2.85;72.52
12349;BME280;5974;42.710;27.258;2023-02-11T06:10:32;102037.56;;;4.12;64.30
12349;BME280;5974;42.710;27.258;2023-02-11T06:13:00;102033.56;;;3.36;59.76
12349;BME280;5974;42.710;27.258;2023-02-11T06:15:27;102030.00;;;4.84;57.18
12349;BME280;5974;42.710;27.258;2023-02-11T06:17:54;102025.78;;;5.63;54.12
12349;BME280;5974;42.710;27.258;2023-02-11T06:20:21;102021.16;;;6.20;50.66
12349;BME280;5974;42.710;27.258;2023-02-11T06:22:48;102027.13;;;8.02;49.98
12349;BME280;5974;42.710;27.258;2023-02-11T06:25:16;102020.19;;;8.01;47.04
12349;BME280;5974;42.710;27.258;2023-02-11T06:27:43;102021.81;;;7.43;48.50
12349;BME280;5974;42.710;27.258;2023-02-11T06:30:11;102018.44;;;7.77;47.29
12349;BME280;5974;42.710;27.258;2023-02-11T06:32:38;102013.56;;;9.79;44.04
12349;BME280;5974;42.710;27.258;2023-02-11T06:35:05;102010.25;;;10.62;41.95
12349;BME280;5974;42.710;27.258;2023-02-11T06:37:32;102009.50;;;9.31;42.71
12349;BME280;5974;42.710;27.258;2023-02-11T06:39:59;102018.41;;;7.76;43.71
12349;BME280;5974;42.710;27.258;2023-02-11T06:42:28;102015.72;;;7.26;46.36
12349;BME280;5974;42.710;27.258;2023-02-11T06:44:54;102019.06;;;7.05;46.71
12349;BME280;5974;42.710;27.258;2023-02-11T06:47:21;102015.59;;;7.07;44.93
12349;BME280;5974;42.710;27.258;2023-02-11T06:49:48;102019.16;;;7.28;46.92
12349;BME280;5974;42.710;27.258;2023-02-11T06:52:15;102017.53;;;7.71;45.54
12349;BME280;5974;42.710;27.258;2023-02-11T06:54:42;102021.06;;;8.53;44.64
12349;BME280;5974;42.710;27.258;2023-02-11T06:57:08;102021.03;;;8.65;44.20
12349;BME280;5974;42.710;27.258;2023-02-11T06:59:37;102024.22;;;6.88;46.20
12349;BME280;5974;42.710;27.258;2023-02-11T07:02:03;102018.38;;;8.88;44.07
12349;BME280;5974;42.710;27.258;2023-02-11T07:04:30;102021.72;;;11.28;39.98
12349;BME280;5974;42.710;27.258;2023-02-11T07:06:57;102022.72;;;7.69;42.59
12349;BME280;5974;42.710;27.258;2023-02-11T07:09:24;102024.09;;;5.69;46.60
12349;BME280;5974;42.710;27.258;2023-02-11T07:11:51;102021.94;;;8.38;42.98
12349;BME280;5974;42.710;27.258;2023-02-11T07:14:17;102000.84;;;10.43;39.07
12349;BME280;5974;42.710;27.258;2023-02-11T07:16:46;102015.81;;;8.62;42.18
12349;BME280;5974;42.710;27.258;2023-02-11T07:19:12;102021.06;;;8.10;42.12
12349;BME280;5974;42.710;27.258;2023-02-11T07:21:39;102013.44;;;9.97;40.66
12349;BME280;5974;42.710;27.258;2023-02-11T07:24:07;102012.34;;;11.76;38.35
12349;BME280;5974;42.710;27.258;2023-02-11T07:26:34;102008.38;;;11.45;37.40
12349;BME280;5974;42.710;27.258;2023-02-11T07:29:01;102010.19;;;9.65;39.54
12349;BME280;5974;42.710;27.258;2023-02-11T07:31:29;102012.41;;;11.70;38.54
12349;BME280;5974;42.710;27.258;2023-02-11T07:33:59;102004.91;;;12.04;36.92
12349;BME280;5974;42.710;27.258;2023-02-11T07:36:27;102000.94;;;7.22;43.48
12349;BME280;5974;42.710;27.258;2023-02-11T07:38:54;102009.41;;;5.68;45.37
12349;BME280;5974;42.710;27.258;2023-02-11T07:41:23;102002.81;;;3.06;49.89
12349;BME280;5974;42.710;27.258;2023-02-11T07:43:50;102004.56;;;1.61;53.85
12349;BME280;5974;42.710;27.258;2023-02-11T07:46:19;101999.53;;;1.01;56.90
12349;BME280;5974;42.710;27.258;2023-02-11T07:48:47;102010.84;;;1.71;57.69
12349;BME280;5974;42.710;27.258;2023-02-11T07:51:17;102001.31;;;1.68;57.36
12349;BME280;5974;42.710;27.258;2023-02-11T07:53:44;101997.78;;;1.02;58.05
12349;BME280;5974;42.710;27.258;2023-02-11T07:56:12;101992.31;;;1.21;59.42
12349;BME280;5974;42.710;27.258;2023-02-11T07:58:40;101995.84;;;1.56;59.26
12349;BME280;5974;42.710;27.258;2023-02-11T08:01:09;101950.38;;;1.58;58.54
12349;BME280;5974;42.710;27.258;2023-02-11T08:03:37;101992.72;;;2.02;56.25
12349;BME280;5974;42.710;27.258;2023-02-11T08:06:06;101982.13;;;2.26;55.71
12349;BME280;5974;42.710;27.258;2023-02-11T08:08:34;101983.03;;;2.66;55.52
12349;BME280;5974;42.710;27.258;2023-02-11T08:11:05;101975.50;;;2.76;54.60
12349;BME280;5974;42.710;27.258;2023-02-11T08:13:32;101972.97;;;2.79;55.26
12349;BME280;5974;42.710;27.258;2023-02-11T08:15:58;101976.94;;;3.03;54.33
12349;BME280;5974;42.710;27.258;2023-02-11T08:18:25;101975.53;;;3.20;54.62
12349;BME280;5974;42.710;27.258;2023-02-11T08:20:52;101975.75;;;2.88;53.75
12349;BME280;5974;42.710;27.258;2023-02-11T08:23:19;101972.75;;;3.10;54.76
12349;BME280;5974;42.710;27.258;2023-02-11T08:25:47;101942.75;;;2.74;55.50
12349;BME280;5974;42.710;27.258;2023-02-11T08:28:14;101973.94;;;2.84;55.33
12349;BME280;5974;42.710;27.258;2023-02-11T08:30:41;101959.41;;;3.34;53.37
12349;BME280;5974;42.710;27.258;2023-02-11T08:33:08;101970.09;;;3.50;53.97
12349;BME280;5974;42.710;27.258;2023-02-11T08:35:35;101964.91;;;3.50;53.60
12349;BME280;5974;42.710;27.258;2023-02-11T08:38:04;101958.75;;;3.95;53.38
12349;BME280;5974;42.710;27.258;2023-02-11T08:40:31;101958.41;;;3.72;53.15
12349;BME280;5974;42.710;27.258;2023-02-11T08:42:59;101954.16;;;3.77;53.23
12349;BME280;5974;42.710;27.258;2023-02-11T08:45:26;101959.53;;;3.89;52.27
12349;BME280;5974;42.710;27.258;2023-02-11T08:47:52;101951.59;;;4.32;51.96
12349;BME280;5974;42.710;27.258;2023-02-11T08:50:19;101957.75;;;4.42;51.52
12349;BME280;5974;42.710;27.258;2023-02-11T08:52:46;101946.50;;;4.40;50.91
12349;BME280;5974;42.710;27.258;2023-02-11T08:55:13;101945.00;;;4.56;51.79
12349;BME280;5974;42.710;27.258;2023-02-11T08:57:40;101949.38;;;4.60;51.11
12349;BME280;5974;42.710;27.258;2023-02-11T09:00:09;101935.53;;;4.59;50.82
12349;BME280;5974;42.710;27.258;2023-02-11T09:02:36;101938.13;;;4.58;50.95
12349;BME280;5974;42.710;27.258;2023-02-11T09:05:04;101921.84;;;4.06;50.06
12349;BME280;5974;42.710;27.258;2023-02-11T09:07:31;101923.63;;;4.09;51.20
12349;BME280;5974;42.710;27.258;2023-02-11T09:09:58;101923.06;;;4.31;50.24
12349;BME280;5974;42.710;27.258;2023-02-11T09:12:25;101913.88;;;4.51;50.46
12349;BME280;5974;42.710;27.258;2023-02-11T09:14:52;101914.34;;;4.90;50.40
12349;BME280;5974;42.710;27.258;2023-02-11T09:17:20;101914.34;;;4.90;50.12
12349;BME280;5974;42.710;27.258;2023-02-11T09:19:46;101900.09;;;4.54;50.61
12349;BME280;5974;42.710;27.258;2023-02-11T09:22:13;101906.78;;;5.09;49.47
12349;BME280;5974;42.710;27.258;2023-02-11T09:24:40;101904.94;;;5.02;49.32
12349;BME280;5974;42.710;27.258;2023-02-11T09:27:07;101897.97;;;4.24;49.61
12349;BME280;5974;42.710;27.258;2023-02-11T09:29:34;101891.84;;;4.89;49.44
12349;BME280;5974;42.710;27.258;2023-02-11T09:32:01;101892.00;;;5.02;49.77
12349;BME280;5974;42.710;27.258;2023-02-11T09:34:29;101872.69;;;5.61;48.27
12349;BME280;5974;42.710;27.258;2023-02-11T09:36:56;101865.88;;;5.78;48.59
12349;BME280;5974;42.710;27.258;2023-02-11T09:39:23;101869.25;;;5.62;46.94
12349;BME280;5974;42.710;27.258;2023-02-11T09:42:24;101866.91;;;4.98;45.85
12349;BME280;5974;42.710;27.258;2023-02-11T09:45:00;101857.31;;;4.87;47.70
12349;BME280;5974;42.710;27.258;2023-02-11T09:47:31;101853.31;;;5.21;47.25
12349;BME280;5974;42.710;27.258;2023-02-11T09:50:03;101850.13;;;5.53;46.11
12349;BME280;5974;42.710;27.258;2023-02-11T09:52:37;101853.06;;;4.96;46.33
12349;BME280;5974;42.710;27.258;2023-02-11T09:55:14;101843.56;;;4.96;46.35
12349;BME280;5974;42.710;27.258;2023-02-11T09:57:42;101843.78;;;5.19;47.08
12349;BME280;5974;42.710;27.258;2023-02-11T10:00:21;101834.84;;;4.88;46.06
12349;BME280;5974;42.710;27.258;2023-02-11T10:03:12;101829.78;;;5.00;46.79
12349;BME280;5974;42.710;27.258;2023-02-11T10:05:59;101835.75;;;4.91;46.33
12349;BME280;5974;42.710;27.258;2023-02-11T10:08:40;101809.28;;;5.27;45.48
12349;BME280;5974;42.710;27.258;2023-02-11T10:11:16;101815.63;;;5.60;45.73
12349;BME280;5974;42.710;27.258;2023-02-11T10:13:53;101813.59;;;5.27;45.15
12349;BME280;5974;42.710;27.258;2023-02-11T10:16:38;101810.25;;;5.40;44.74
12349;BME280;5974;42.710;27.258;2023-02-11T10:19:34;101798.13;;;5.39;45.53
12349;BME280;5974;42.710;27.258;2023-02-11T10:22:10;101792.06;;;5.35;45.86
12349;BME280;5974;42.710;27.258;2023-02-11T10:24:40;101794.94;;;5.76;45.21
12349;BME280;5974;42.710;27.258;2023-02-11T10:27:14;101786.31;;;5.80;45.06
12349;BME280;5974;42.710;27.258;2023-02-11T10:29:46;101780.28;;;5.81;44.57
12349;BME280;5974;42.710;27.258;2023-02-11T10:32:25;101776.72;;;5.64;43.21
12349;BME280;5974;42.710;27.258;2023-02-11T10:34:55;101762.84;;;5.64;44.03
12349;BME280;5974;42.710;27.258;2023-02-11T10:37:25;101764.72;;;5.84;43.42
12349;BME280;5974;42.710;27.258;2023-02-11T10:39:52;101761.97;;;5.56;44.27
12349;BME280;5974;42.710;27.258;2023-02-11T10:42:19;101749.81;;;5.47;45.17
12349;BME280;5974;42.710;27.258;2023-02-11T10:44:56;101740.47;;;5.82;44.64
12349;BME280;5974;42.710;27.258;2023-02-11T10:47:26;101740.31;;;5.51;44.98
12349;BME280;5974;42.710;27.258;2023-02-11T10:49:54;101741.28;;;5.72;44.99
12349;BME280;5974;42.710;27.258;2023-02-11T10:52:29;101740.41;;;5.67;43.68
12349;BME280;5974;42.710;27.258;2023-02-11T10:55:00;101730.00;;;5.64;44.11
12349;BME280;5974;42.710;27.258;2023-02-11T10:57:33;101729.34;;;6.00;44.13
12349;BME280;5974;42.710;27.258;2023-02-11T11:00:19;101730.91;;;5.71;44.40
12349;BME280;5974;42.710;27.258;2023-02-11T11:02:54;101718.16;;;6.16;43.68
12349;BME280;5974;42.710;27.258;2023-02-11T11:05:27;101726.88;;;6.38;42.55
12349;BME280;5974;42.710;27.258;2023-02-11T11:07:58;101723.31;;;6.10;43.02
12349;BME280;5974;42.710;27.258;2023-02-11T11:10:29;101721.41;;;5.74;42.59
12349;BME280;5974;42.710;27.258;2023-02-11T11:12:57;101712.03;;;6.04;42.45
12349;BME280;5974;42.710;27.258;2023-02-11T11:15:25;101717.31;;;6.25;42.50
12349;BME280;5974;42.710;27.258;2023-02-11T11:18:09;101706.94;;;6.29;42.21
12349;BME280;5974;42.710;27.258;2023-02-11T11:20:43;101703.44;;;6.17;41.57
12349;BME280;5974;42.710;27.258;2023-02-11T11:23:22;101707.78;;;6.15;43.40
12349;BME280;5974;42.710;27.258;2023-02-11T11:26:01;101709.47;;;6.10;42.69
12349;BME280;5974;42.710;27.258;2023-02-11T11:28:30;101697.41;;;6.21;42.81
12349;BME280;5974;42.710;27.258;2023-02-11T11:31:01;101700.94;;;6.45;42.01
12349;BME280;5974;42.710;27.258;2023-02-11T11:33:30;101694.81;;;6.27;42.62
12349;BME280;5974;42.710;27.258;2023-02-11T11:36:02;101681.75;;;6.01;42.48
12349;BME280;5974;42.710;27.258;2023-02-11T11:38:33;101678.38;;;6.34;41.64
12349;BME280;5974;42.710;27.258;2023-02-11T11:41:19;101680.13;;;6.59;41.20
12349;BME280;5974;42.710;27.258;2023-02-11T11:43:57;101667.16;;;6.48;41.39
12349;BME280;5974;42.710;27.258;2023-02-11T11:46:27;101667.97;;;6.43;41.31
12349;BME280;5974;42.710;27.258;2023-02-11T11:49:00;101668.84;;;6.27;40.80
12349;BME280;5974;42.710;27.258;2023-02-11T11:51:31;101655.88;;;6.55;42.06
12349;BME280;5974;42.710;27.258;2023-02-11T11:54:03;101647.22;;;6.94;39.25
12349;BME280;5974;42.710;27.258;2023-02-11T11:56:33;101645.50;;;6.83;39.79
12349;BME280;5974;42.710;27.258;2023-02-11T11:59:10;101648.97;;;6.73;40.03
12349;BME280;5974;42.710;27.258;2023-02-11T12:01:49;101626.44;;;6.70;40.35
12349;BME280;5974;42.710;27.258;2023-02-11T12:07:29;101629.03;;;6.72;41.19
12349;BME280;5974;42.710;27.258;2023-02-11T12:10:15;101622.97;;;6.68;41.10
12349;BME280;5974;42.710;27.258;2023-02-11T12:12:53;101626.47;;;6.61;40.21
12349;BME280;5974;42.710;27.258;2023-02-11T12:15:31;101617.75;;;6.86;40.16
12349;BME280;5974;42.710;27.258;2023-02-11T12:18:12;101609.13;;;6.83;39.55
12349;BME280;5974;42.710;27.258;2023-02-11T12:20:58;101599.59;;;6.73;40.10
12349;BME280;5974;42.710;27.258;2023-02-11T12:23:35;101600.47;;;6.64;40.01
12349;BME280;5974;42.710;27.258;2023-02-11T12:26:12;101601.34;;;6.54;39.45
12349;BME280;5974;42.710;27.258;2023-02-11T12:28:49;101600.47;;;6.63;39.27
12349;BME280;5974;42.710;27.258;2023-02-11T12:31:38;101608.28;;;6.61;40.88
12349;BME280;5974;42.710;27.258;2023-02-11T12:34:32;101592.66;;;6.70;40.23
12349;BME280;5974;42.710;27.258;2023-02-11T12:37:08;101602.19;;;6.82;39.25
12349;BME280;5974;42.710;27.258;2023-02-11T12:39:49;101600.44;;;6.87;39.16
12349;BME280;5974;42.710;27.258;2023-02-11T12:45:48;101596.09;;;6.78;37.71
12349;BME280;5974;42.710;27.258;2023-02-11T12:48:35;101565.81;;;6.73;37.14
12349;BME280;5974;42.710;27.258;2023-02-11T12:51:15;101590.91;;;6.77;38.59
12349;BME280;5974;42.710;27.258;2023-02-11T12:54:04;101590.03;;;6.85;37.98
12349;BME280;5974;42.710;27.258;2023-02-11T12:56:39;101591.75;;;6.89;38.93
12349;BME280;5974;42.710;27.258;2023-02-11T12:59:13;101588.31;;;6.78;39.22
12349;BME280;5974;42.710;27.258;2023-02-11T13:01:44;101583.13;;;6.72;38.63
12349;BME280;5974;42.710;27.258;2023-02-11T13:04:16;101580.50;;;6.90;38.64
12349;BME280;5974;42.710;27.258;2023-02-11T13:06:49;101583.97;;;6.88;39.45
12349;BME280;5974;42.710;27.258;2023-02-11T13:09:19;101558.88;;;6.67;38.89
12349;BME280;5974;42.710;27.258;2023-02-11T13:11:50;101577.91;;;6.81;38.72
12349;BME280;5974;42.710;27.258;2023-02-11T13:14:24;101581.38;;;6.68;39.53
12349;BME280;5974;42.710;27.258;2023-02-11T13:16:55;101583.97;;;6.86;38.71
12349;BME280;5974;42.710;27.258;2023-02-11T13:19:25;101578.78;;;6.71;38.64
12349;BME280;5974;42.710;27.258;2023-02-11T13:22:04;101571.84;;;6.81;39.00